createdAt,value
2022-11-10T00:00:38.186Z,100.00
2022-11-10T00:03:18.145Z,100.00
2022-11-10T00:05:46.928Z,100.00
2022-11-10T00:08:16.546Z,100.00
2022-11-10T00:11:01.998Z,100.00
2022-11-10T00:13:33.575Z,100.00
2022-11-10T00:16:21.395Z,100.00
2022-11-10T00:18:49.899Z,100.00
2022-11-10T00:21:20.305Z,100.00
2022-11-10T00:23:49.833Z,100.00
2022-11-10T00:26:20.331Z,100.00
2022-11-10T00:28:48.539Z,100.00
2022-11-10T00:31:16.786Z,100.00
2022-11-10T00:33:45.645Z,100.00
2022-11-10T00:36:13.906Z,100.00
2022-11-10T00:38:42.317Z,100.00
2022-11-10T00:41:11.771Z,100.00
2022-11-10T00:43:40.134Z,100.00
2022-11-10T00:46:08.184Z,100.00
2022-11-10T00:48:36.386Z,100.00
2022-11-10T00:51:04.893Z,100.00
2022-11-10T00:53:33.525Z,100.00
2022-11-10T00:56:01.547Z,100.00
2022-11-10T00:58:31.262Z,100.00
2022-11-10T01:01:03.194Z,100.00
2022-11-10T01:03:31.695Z,100.00
2022-11-10T01:06:00.394Z,100.00
2022-11-10T01:08:28.478Z,100.00
2022-11-10T01:11:03.214Z,100.00
2022-11-10T01:13:32.971Z,100.00
2022-11-10T01:16:05.522Z,100.00
2022-11-10T01:18:33.880Z,100.00
2022-11-10T01:21:02.548Z,100.00
2022-11-10T01:23:30.949Z,100.00
2022-11-10T01:25:59.452Z,100.00
2022-11-10T01:28:27.982Z,100.00
2022-11-10T01:31:01.330Z,100.00
2022-11-10T01:33:30.078Z,100.00
2022-11-10T01:35:58.623Z,100.00
2022-11-10T01:38:29.126Z,100.00
2022-11-10T01:40:58.212Z,100.00
2022-11-10T01:43:27.258Z,100.00
2022-11-10T01:45:56.478Z,100.00
2022-11-10T01:48:32.895Z,100.00
2022-11-10T01:51:04.940Z,100.00
2022-11-10T01:53:36.563Z,100.00
2022-11-10T01:56:05.926Z,100.00
2022-11-10T01:58:40.244Z,100.00
2022-11-10T02:01:09.841Z,100.00
2022-11-10T02:03:43.272Z,100.00
2022-11-10T02:06:12.936Z,100.00
2022-11-10T02:08:42.789Z,100.00
2022-11-10T02:11:12.353Z,100.00
2022-11-10T02:13:41.429Z,100.00
2022-11-10T02:16:10.801Z,100.00
2022-11-10T02:18:40.551Z,100.00
2022-11-10T02:21:10.253Z,100.00
2022-11-10T02:23:47.099Z,100.00
2022-11-10T02:26:17.685Z,100.00
2022-11-10T02:28:46.287Z,100.00
2022-11-10T02:31:14.612Z,100.00
2022-11-10T02:33:42.802Z,100.00
2022-11-10T02:36:12.833Z,100.00
2022-11-10T02:38:41.448Z,100.00
2022-11-10T02:41:10.314Z,100.00
2022-11-10T02:43:39.513Z,100.00
2022-11-10T02:46:07.975Z,100.00
2022-11-10T02:48:36.013Z,100.00
2022-11-10T02:51:05.658Z,100.00
2022-11-10T02:53:35.086Z,100.00
2022-11-10T02:56:03.196Z,100.00
2022-11-10T02:58:31.740Z,100.00
2022-11-10T03:00:59.821Z,100.00
2022-11-10T03:03:27.972Z,100.00
2022-11-10T03:05:56.295Z,100.00
2022-11-10T03:08:24.599Z,100.00
2022-11-10T03:10:56.289Z,100.00
2022-11-10T03:13:32.265Z,100.00
2022-11-10T03:16:13.234Z,100.00
2022-11-10T03:18:41.678Z,100.00
2022-11-10T03:21:09.982Z,100.00
2022-11-10T03:23:38.074Z,100.00
2022-11-10T03:26:08.711Z,100.00
2022-11-10T03:28:36.876Z,100.00
2022-11-10T03:31:34.223Z,100.00
2022-11-10T03:34:02.535Z,100.00
2022-11-10T03:36:30.759Z,100.00
2022-11-10T03:38:58.930Z,100.00
2022-11-10T03:41:28.711Z,100.00
2022-11-10T03:43:59.316Z,100.00
2022-11-10T03:46:27.347Z,100.00
2022-11-10T03:48:55.656Z,100.00
2022-11-10T03:51:23.908Z,100.00
2022-11-10T03:53:51.977Z,100.00
2022-11-10T03:56:20.307Z,100.00
2022-11-10T03:58:49.873Z,100.00
2022-11-10T04:01:18.036Z,100.00
2022-11-10T04:03:51.309Z,100.00
2022-11-10T04:06:39.489Z,100.00
2022-11-10T04:09:09.162Z,100.00
2022-11-10T04:11:54.328Z,100.00
2022-11-10T04:14:41.675Z,100.00
2022-11-10T04:17:09.839Z,100.00
2022-11-10T04:19:38.179Z,100.00
2022-11-10T04:22:06.214Z,100.00
2022-11-10T04:24:34.245Z,100.00
2022-11-10T04:27:02.571Z,100.00
2022-11-10T04:29:31.994Z,100.00
2022-11-10T04:31:59.802Z,100.00
2022-11-10T04:34:28.417Z,100.00
2022-11-10T04:36:56.511Z,100.00
2022-11-10T04:39:24.868Z,100.00
2022-11-10T04:41:52.916Z,100.00
2022-11-10T04:44:21.563Z,100.00
2022-11-10T04:46:51.015Z,100.00
2022-11-10T04:49:19.485Z,100.00
2022-11-10T04:51:47.897Z,100.00
2022-11-10T04:54:16.022Z,100.00
2022-11-10T04:56:44.157Z,100.00
2022-11-10T04:59:12.455Z,100.00
2022-11-10T05:01:40.524Z,100.00
2022-11-10T05:04:09.937Z,100.00
2022-11-10T05:06:38.308Z,100.00
2022-11-10T05:09:06.364Z,100.00
2022-11-10T05:11:35.320Z,100.00
2022-11-10T05:14:03.735Z,100.00
2022-11-10T05:16:31.859Z,100.00
2022-11-10T05:18:59.903Z,100.00
2022-11-10T05:21:29.620Z,100.00
2022-11-10T05:23:57.485Z,100.00
2022-11-10T05:26:25.922Z,100.00
2022-11-10T05:28:54.033Z,100.00
2022-11-10T05:31:22.111Z,100.00
2022-11-10T05:33:50.431Z,100.00
2022-11-10T05:36:18.587Z,100.00
2022-11-10T05:38:47.972Z,100.00
2022-11-10T05:41:16.384Z,100.00
2022-11-10T05:43:44.388Z,100.00
2022-11-10T05:46:12.467Z,100.00
2022-11-10T05:48:40.785Z,100.00
2022-11-10T05:51:08.978Z,100.00
2022-11-10T05:53:37.363Z,100.00
2022-11-10T05:56:07.574Z,100.00
2022-11-10T05:58:35.770Z,100.00
2022-11-10T06:01:04.092Z,100.00
2022-11-10T06:03:32.293Z,100.00
2022-11-10T06:06:00.380Z,100.00
2022-11-10T06:08:28.718Z,100.00
2022-11-10T06:10:56.758Z,100.00
2022-11-10T06:13:26.477Z,100.00
2022-11-10T06:15:54.836Z,100.00
2022-11-10T06:18:22.877Z,100.00
2022-11-10T06:20:51.085Z,100.00
2022-11-10T06:23:19.798Z,100.00
2022-11-10T06:25:48.147Z,100.00
2022-11-10T06:28:17.305Z,100.00
2022-11-10T06:30:46.915Z,100.00
2022-11-10T06:33:15.304Z,100.00
2022-11-10T06:35:43.356Z,100.00
2022-11-10T06:38:12.744Z,100.00
2022-11-10T06:40:40.949Z,100.00
2022-11-10T06:43:09.276Z,100.00
2022-11-10T06:45:37.312Z,100.00
2022-11-10T06:48:11.015Z,100.00
2022-11-10T06:50:39.251Z,100.00
2022-11-10T06:53:07.659Z,100.00
2022-11-10T06:55:38.229Z,100.00
2022-11-10T06:58:06.536Z,100.00
2022-11-10T07:00:34.834Z,100.00
2022-11-10T07:03:04.410Z,100.00
2022-11-10T07:05:35.297Z,100.00
2022-11-10T07:08:04.908Z,100.00
2022-11-10T07:10:33.463Z,100.00
2022-11-10T07:13:03.986Z,100.00
2022-11-10T07:15:33.636Z,100.00
2022-11-10T07:18:03.009Z,100.00
2022-11-10T07:20:31.498Z,100.00
2022-11-10T07:23:02.090Z,100.00
2022-11-10T07:25:32.422Z,100.00
2022-11-10T07:28:02.189Z,100.00
2022-11-10T07:30:31.969Z,100.00
2022-11-10T07:33:00.486Z,100.00
2022-11-10T07:35:29.577Z,100.00
2022-11-10T07:37:58.051Z,100.00
2022-11-10T07:40:27.939Z,100.00
2022-11-10T07:42:56.049Z,100.00
2022-11-10T07:45:24.661Z,100.00
2022-11-10T07:47:52.820Z,100.00
2022-11-10T07:50:21.220Z,100.00
2022-11-10T07:52:49.282Z,100.00
2022-11-10T07:55:17.898Z,100.00
2022-11-10T07:57:47.327Z,100.00
2022-11-10T08:00:16.936Z,100.00
2022-11-10T08:02:45.027Z,100.00
2022-11-10T08:05:13.477Z,100.00
2022-11-10T08:07:42.263Z,100.00
2022-11-10T08:10:10.970Z,100.00
2022-11-10T08:12:39.094Z,100.00
2022-11-10T08:15:09.905Z,100.00
2022-11-10T08:17:38.007Z,100.00
2022-11-10T08:20:07.480Z,100.00
2022-11-10T08:22:35.516Z,100.00
2022-11-10T08:25:03.916Z,100.00
2022-11-10T08:27:31.991Z,100.00
2022-11-10T08:30:00.439Z,100.00
2022-11-10T08:32:29.879Z,100.00
2022-11-10T08:34:58.183Z,99.86
2022-11-10T08:37:27.852Z,99.46
2022-11-10T08:39:56.172Z,99.16
2022-11-10T08:42:24.320Z,99.06
2022-11-10T08:44:52.690Z,98.15
2022-11-10T08:47:20.783Z,98.59
2022-11-10T08:49:50.618Z,98.23
2022-11-10T08:52:18.783Z,98.59
2022-11-10T08:54:49.336Z,98.48
2022-11-10T08:57:19.251Z,98.48
2022-11-10T08:59:50.889Z,98.92
2022-11-10T09:02:19.535Z,98.81
2022-11-10T09:04:51.800Z,98.83
2022-11-10T09:07:23.289Z,99.10
2022-11-10T09:10:06.581Z,99.10
2022-11-10T09:12:40.007Z,99.34
2022-11-10T09:15:16.066Z,99.22
2022-11-10T09:17:46.657Z,99.11
2022-11-10T09:20:25.016Z,99.73
2022-11-10T09:22:58.486Z,99.23
2022-11-10T09:25:26.844Z,99.75
2022-11-10T09:27:55.017Z,100.00
2022-11-10T09:30:23.504Z,100.00
2022-11-10T09:32:55.299Z,100.00
2022-11-10T09:35:25.432Z,100.00
2022-11-10T09:37:53.674Z,99.61
2022-11-10T09:40:25.846Z,99.42
2022-11-10T09:42:57.555Z,97.71
2022-11-10T09:45:32.795Z,97.47
2022-11-10T09:48:08.886Z,96.59
2022-11-10T09:50:44.594Z,95.23
2022-11-10T09:53:17.848Z,94.57
2022-11-10T09:55:50.022Z,92.71
2022-11-10T09:58:18.643Z,93.54
2022-11-10T10:00:58.270Z,93.28
2022-11-10T10:03:32.546Z,93.84
2022-11-10T10:06:10.386Z,93.32
2022-11-10T10:08:48.959Z,93.27
2022-11-10T10:11:28.133Z,93.17
2022-11-10T10:14:10.045Z,92.50
2022-11-10T10:16:43.680Z,93.11
2022-11-10T10:19:21.132Z,91.89
2022-11-10T10:22:21.531Z,93.14
2022-11-10T10:24:53.239Z,94.25
2022-11-10T10:27:24.400Z,93.61
2022-11-10T10:29:53.071Z,93.67
2022-11-10T10:32:22.612Z,93.82
2022-11-10T10:34:50.715Z,93.68
2022-11-10T10:37:27.239Z,93.07
2022-11-10T10:39:56.618Z,91.61
2022-11-10T10:42:32.247Z,91.25
2022-11-10T10:45:18.289Z,90.59
2022-11-10T10:47:47.938Z,89.22
2022-11-10T10:50:32.232Z,90.66
2022-11-10T10:53:18.672Z,91.25
2022-11-10T10:55:50.305Z,92.02
2022-11-10T10:58:27.459Z,91.51
2022-11-10T11:01:00.345Z,93.05
2022-11-10T11:03:31.103Z,93.82
2022-11-10T11:06:05.176Z,93.55
2022-11-10T11:08:35.595Z,93.67
2022-11-10T11:11:11.354Z,93.18
2022-11-10T11:13:39.665Z,93.87
2022-11-10T11:16:12.386Z,93.58
2022-11-10T11:18:41.677Z,92.61
2022-11-10T11:21:18.705Z,92.54
2022-11-10T11:24:15.756Z,92.09
2022-11-10T11:26:50.877Z,92.34
2022-11-10T11:29:32.658Z,92.82
2022-11-10T11:32:15.992Z,93.40
2022-11-10T11:34:53.760Z,92.79
2022-11-10T11:37:28.640Z,91.43
2022-11-10T11:40:12.822Z,91.49
2022-11-10T11:42:54.152Z,89.78
2022-11-10T11:45:33.511Z,90.61
2022-11-10T11:48:23.081Z,92.10
2022-11-10T11:50:57.784Z,92.05
2022-11-10T11:53:39.251Z,92.75
2022-11-10T11:56:20.887Z,92.73
2022-11-10T11:59:00.611Z,91.76
2022-11-10T12:01:46.709Z,90.72
2022-11-10T12:04:43.175Z,91.06
2022-11-10T12:07:24.895Z,90.73
2022-11-10T12:10:02.554Z,90.59
2022-11-10T12:13:00.620Z,90.41
2022-11-10T12:15:38.767Z,91.29
2022-11-10T12:18:20.694Z,90.31
2022-11-10T12:21:00.566Z,90.93
2022-11-10T12:23:42.130Z,90.81
2022-11-10T12:26:20.530Z,90.85
2022-11-10T12:28:54.682Z,89.76
2022-11-10T12:31:27.248Z,90.24
2022-11-10T12:34:00.222Z,89.08
2022-11-10T12:36:31.582Z,89.69
2022-11-10T12:39:06.031Z,88.48
2022-11-10T12:41:40.063Z,87.11
2022-11-10T12:44:20.224Z,86.83
2022-11-10T12:46:54.028Z,88.37
2022-11-10T12:49:30.235Z,87.69
2022-11-10T12:52:04.253Z,88.62
2022-11-10T12:54:33.050Z,88.73
2022-11-10T12:57:06.452Z,88.55
2022-11-10T12:59:36.659Z,88.86
2022-11-10T13:02:20.936Z,87.97
2022-11-10T13:05:11.817Z,88.95
2022-11-10T13:07:39.871Z,89.98
2022-11-10T13:10:23.955Z,89.69
2022-11-10T13:13:07.674Z,89.87
2022-11-10T13:15:48.653Z,90.05
2022-11-10T13:18:43.621Z,90.49
2022-11-10T13:21:11.987Z,90.34
2022-11-10T13:24:21.005Z,90.45
2022-11-10T13:26:52.527Z,91.31
2022-11-10T13:29:29.342Z,91.14
2022-11-10T13:31:59.393Z,90.83
2022-11-10T13:34:34.303Z,90.07
2022-11-10T13:37:04.046Z,89.51
2022-11-10T13:39:34.242Z,90.09
2022-11-10T13:42:17.281Z,90.42
2022-11-10T13:44:48.278Z,90.85
2022-11-10T13:47:51.367Z,91.33
2022-11-10T13:50:30.957Z,91.97
2022-11-10T13:53:17.066Z,91.87
2022-11-10T13:56:01.504Z,92.89
2022-11-10T13:58:32.823Z,92.93
2022-11-10T14:01:30.807Z,92.97
2022-11-10T14:04:02.233Z,93.56
2022-11-10T14:06:44.412Z,93.35
2022-11-10T14:09:27.006Z,93.94
2022-11-10T14:12:00.058Z,94.39
2022-11-10T14:14:34.814Z,94.97
2022-11-10T14:17:03.175Z,94.12
2022-11-10T14:19:39.445Z,93.15
2022-11-10T14:22:20.282Z,93.67
2022-11-10T14:24:57.960Z,94.29
2022-11-10T14:27:29.576Z,93.46
2022-11-10T14:30:19.469Z,93.97
2022-11-10T14:32:55.503Z,94.58
2022-11-10T14:35:25.814Z,94.28
2022-11-10T14:37:59.363Z,94.79
2022-11-10T14:40:29.294Z,94.96
2022-11-10T14:42:57.635Z,96.04
2022-11-10T14:45:27.920Z,96.89
2022-11-10T14:47:57.600Z,97.44
2022-11-10T14:50:28.190Z,97.54
2022-11-10T14:53:01.609Z,98.52
2022-11-10T14:55:32.215Z,99.20
2022-11-10T14:58:05.234Z,99.49
2022-11-10T15:00:37.898Z,98.75
2022-11-10T15:03:11.705Z,99.62
2022-11-10T15:05:40.306Z,100.00
2022-11-10T15:08:10.382Z,100.00
2022-11-10T15:10:47.690Z,100.00
2022-11-10T15:13:35.996Z,100.00
2022-11-10T15:16:25.810Z,100.00
2022-11-10T15:18:55.724Z,100.00
2022-11-10T15:21:30.166Z,100.00
2022-11-10T15:24:03.308Z,100.00
2022-11-10T15:26:39.689Z,100.00
2022-11-10T15:29:07.969Z,100.00
2022-11-10T15:31:37.161Z,100.00
2022-11-10T15:34:06.571Z,100.00
2022-11-10T15:36:39.660Z,100.00
2022-11-10T15:39:20.472Z,100.00
2022-11-10T15:41:50.793Z,100.00
2022-11-10T15:44:21.374Z,100.00
2022-11-10T15:46:53.492Z,100.00
2022-11-10T15:49:26.575Z,100.00
2022-11-10T15:51:58.734Z,100.00
2022-11-10T15:54:31.322Z,100.00
2022-11-10T15:56:59.406Z,100.00
2022-11-10T15:59:28.001Z,100.00
2022-11-10T16:01:56.755Z,100.00
2022-11-10T16:04:28.107Z,100.00
2022-11-10T16:06:57.250Z,100.00
2022-11-10T16:09:25.324Z,100.00
2022-11-10T16:11:54.779Z,100.00
2022-11-10T16:14:23.139Z,100.00
2022-11-10T16:16:51.226Z,100.00
2022-11-10T16:19:19.327Z,100.00
2022-11-10T16:21:47.751Z,100.00
2022-11-10T16:24:18.253Z,100.00
2022-11-10T16:26:46.506Z,100.00
2022-11-10T16:29:18.852Z,100.00
2022-11-10T16:31:47.263Z,100.00
2022-11-10T16:34:15.874Z,100.00
2022-11-10T16:36:46.265Z,100.00
2022-11-10T16:39:16.392Z,100.00
2022-11-10T16:41:44.934Z,100.00
2022-11-10T16:44:14.153Z,100.00
2022-11-10T16:46:46.231Z,100.00
2022-11-10T16:49:25.886Z,100.00
2022-11-10T16:51:53.732Z,100.00
2022-11-10T16:54:22.110Z,100.00
2022-11-10T16:56:50.189Z,100.00
2022-11-10T16:59:18.259Z,100.00
2022-11-10T17:01:49.072Z,100.00
2022-11-10T17:04:17.322Z,100.00
2022-11-10T17:06:46.074Z,100.00
2022-11-10T17:09:18.757Z,100.00
2022-11-10T17:11:47.341Z,100.00
2022-11-10T17:14:16.627Z,100.00
2022-11-10T17:16:48.480Z,100.00
2022-11-10T17:19:21.482Z,100.00
2022-11-10T17:21:51.745Z,100.00
2022-11-10T17:24:21.919Z,100.00
2022-11-10T17:26:50.383Z,100.00
2022-11-10T17:29:20.979Z,100.00
2022-11-10T17:31:51.358Z,100.00
2022-11-10T17:34:19.776Z,100.00
2022-11-10T17:36:47.923Z,100.00
2022-11-10T17:39:17.726Z,100.00
2022-11-10T17:41:45.806Z,100.00
2022-11-10T17:44:15.158Z,100.00
2022-11-10T17:46:43.484Z,100.00
2022-11-10T17:49:13.225Z,100.00
2022-11-10T17:51:41.609Z,100.00
2022-11-10T17:54:13.640Z,100.00
2022-11-10T17:56:42.523Z,100.00
2022-11-10T17:59:10.549Z,100.00
2022-11-10T18:01:38.949Z,100.00
2022-11-10T18:04:07.043Z,100.00
2022-11-10T18:06:36.792Z,100.00
2022-11-10T18:09:04.641Z,100.00
2022-11-10T18:11:32.957Z,100.00
2022-11-10T18:14:01.934Z,100.00
2022-11-10T18:16:30.388Z,100.00
2022-11-10T18:18:59.361Z,100.00
2022-11-10T18:21:27.592Z,100.00
2022-11-10T18:23:57.303Z,100.00
2022-11-10T18:26:25.157Z,100.00
2022-11-10T18:28:53.584Z,100.00
2022-11-10T18:31:21.620Z,100.00
2022-11-10T18:33:49.969Z,100.00
2022-11-10T18:36:18.209Z,100.00
2022-11-10T18:38:46.792Z,100.00
2022-11-10T18:41:33.979Z,100.00
2022-11-10T18:44:02.297Z,100.00
2022-11-10T18:46:30.348Z,100.00
2022-11-10T18:49:01.102Z,100.00
2022-11-10T18:51:29.149Z,100.00
2022-11-10T18:53:57.471Z,100.00
2022-11-10T18:56:27.212Z,100.00
2022-11-10T18:58:57.090Z,100.00
2022-11-10T19:01:25.803Z,100.00
2022-11-10T19:03:54.641Z,100.00
2022-11-10T19:06:22.907Z,100.00
2022-11-10T19:08:52.072Z,100.00
2022-11-10T19:11:20.877Z,100.00
2022-11-10T19:13:51.197Z,100.00
2022-11-10T19:16:20.611Z,100.00
2022-11-10T19:18:48.947Z,100.00
2022-11-10T19:21:19.294Z,100.00
2022-11-10T19:23:47.959Z,100.00
2022-11-10T19:26:23.022Z,100.00
2022-11-10T19:28:55.458Z,100.00
2022-11-10T19:31:24.765Z,100.00
2022-11-10T19:33:55.995Z,100.00
2022-11-10T19:36:26.622Z,100.00
2022-11-10T19:38:55.598Z,100.00
2022-11-10T19:41:25.470Z,100.00
2022-11-10T19:43:55.950Z,100.00
2022-11-10T19:46:25.664Z,100.00
2022-11-10T19:48:54.438Z,100.00
2022-11-10T19:51:23.282Z,100.00
2022-11-10T19:53:58.503Z,100.00
2022-11-10T19:56:31.506Z,100.00
2022-11-10T19:59:01.898Z,100.00
2022-11-10T20:01:32.165Z,100.00
2022-11-10T20:04:01.465Z,100.00
2022-11-10T20:06:29.853Z,100.00
2022-11-10T20:08:58.243Z,100.00
2022-11-10T20:11:27.767Z,100.00
2022-11-10T20:13:58.880Z,100.00
2022-11-10T20:16:28.649Z,100.00
2022-11-10T20:18:59.078Z,100.00
2022-11-10T20:21:27.582Z,100.00
2022-11-10T20:23:56.800Z,100.00
2022-11-10T20:26:26.267Z,100.00
2022-11-10T20:28:54.350Z,100.00
2022-11-10T20:31:26.259Z,100.00
2022-11-10T20:33:56.805Z,100.00
2022-11-10T20:36:27.246Z,100.00
2022-11-10T20:38:56.703Z,100.00
2022-11-10T20:41:28.724Z,100.00
2022-11-10T20:43:57.255Z,100.00
2022-11-10T20:46:54.069Z,100.00
2022-11-10T20:49:15.030Z,100.00
2022-11-10T20:51:43.532Z,100.00
2022-11-10T20:54:12.943Z,100.00
2022-11-10T20:56:41.586Z,100.00
2022-11-10T20:59:09.650Z,100.00
2022-11-10T21:01:38.425Z,100.00
2022-11-10T21:04:07.232Z,100.00
2022-11-10T21:06:36.992Z,100.00
2022-11-10T21:09:05.484Z,100.00
2022-11-10T21:11:51.978Z,100.00
2022-11-10T21:14:20.253Z,100.00
2022-11-10T21:16:48.728Z,100.00
2022-11-10T21:19:16.836Z,100.00
2022-11-10T21:21:46.532Z,100.00
2022-11-10T21:24:14.391Z,100.00
2022-11-10T21:26:42.476Z,100.00
2022-11-10T21:29:11.675Z,100.00
2022-11-10T21:31:39.722Z,100.00
2022-11-10T21:34:08.219Z,100.00
2022-11-10T21:36:36.348Z,100.00
2022-11-10T21:39:06.901Z,100.00
2022-11-10T21:41:35.043Z,100.00
2022-11-10T21:44:05.781Z,100.00
2022-11-10T21:46:34.491Z,100.00
2022-11-10T21:49:07.428Z,100.00
2022-11-10T21:51:36.552Z,100.00
2022-11-10T21:54:06.351Z,100.00
2022-11-10T21:56:34.191Z,100.00
2022-11-10T21:59:02.656Z,100.00
2022-11-10T22:01:30.915Z,100.00
2022-11-10T22:03:59.377Z,100.00
2022-11-10T22:06:47.843Z,100.00
2022-11-10T22:09:38.230Z,100.00
2022-11-10T22:12:26.115Z,100.00
2022-11-10T22:15:12.265Z,100.00
2022-11-10T22:17:57.803Z,100.00
2022-11-10T22:20:26.637Z,100.00
2022-11-10T22:22:54.822Z,100.00
2022-11-10T22:25:24.706Z,100.00
2022-11-10T22:27:53.465Z,100.00
2022-11-10T22:30:21.891Z,100.00
2022-11-10T22:32:50.429Z,100.00
2022-11-10T22:35:32.877Z,100.00
2022-11-10T22:38:05.629Z,100.00
2022-11-10T22:40:54.591Z,100.00
2022-11-10T22:43:54.462Z,100.00
2022-11-10T22:46:22.932Z,100.00
2022-11-10T22:48:51.094Z,100.00
2022-11-10T22:51:19.596Z,100.00
2022-11-10T22:53:48.144Z,100.00
2022-11-10T22:56:19.462Z,100.00
2022-11-10T22:58:47.870Z,100.00
2022-11-10T23:01:16.357Z,100.00
2022-11-10T23:03:44.598Z,100.00
2022-11-10T23:06:13.193Z,100.00
2022-11-10T23:08:41.939Z,100.00
2022-11-10T23:11:13.239Z,100.00
2022-11-10T23:13:43.371Z,100.00
2022-11-10T23:16:14.064Z,100.00
2022-11-10T23:18:44.870Z,100.00
2022-11-10T23:21:15.187Z,100.00
2022-11-10T23:23:44.232Z,100.00
2022-11-10T23:26:14.404Z,100.00
2022-11-10T23:28:45.112Z,100.00
2022-11-10T23:31:15.398Z,100.00
2022-11-10T23:33:45.431Z,100.00
2022-11-10T23:36:14.973Z,100.00
2022-11-10T23:38:44.553Z,100.00
2022-11-10T23:41:15.630Z,100.00
2022-11-10T23:43:45.719Z,100.00
2022-11-10T23:46:14.032Z,100.00
2022-11-10T23:48:42.819Z,100.00
2022-11-10T23:51:15.115Z,100.00
2022-11-10T23:53:43.726Z,100.00
2022-11-10T23:56:14.412Z,100.00
2022-11-10T23:58:42.880Z,100.00
